Flight Track Log - Related Links

Times and Time Zones

All times are in EDT time to prevent confusion due to time zone crossing. See the N43812 flight status page for this flight to view local times or setup timezone preferences in your user account.


Time Position Orientation Groundspeed Altitude Reporting Facility
EDT Latitude Longitude Course Direction KTS MPH feet Rate Location/Type
Mon 10:41:24 AM 40.7856 -79.7850 87° East 106 122 3,500  Level Cleveland Center
Mon 10:42:25 AM 40.7875 -79.7467 86° East 106 122 3,900 496 Climbing Cleveland Center
Mon 10:43:25 AM 40.7894 -79.7139 86° East 101 116 4,500 477 Climbing Cleveland Center
Mon 10:45:00 AM 40.7851 -79.6397 88° East  Level FlightAware Approximate
Mon 10:46:24 AM 40.7925 -79.6014 88° East 102 117 5,800  Level Cleveland Center
Mon 10:47:00 AM 40.7772 -79.9355 87° East  Level Estimated
Mon 10:47:24 AM 40.7944 -79.5628 86° East 107 123 6,300  Level Cleveland Center
Mon 10:48:25 AM 40.7961 -79.5272 86° East 102 117 6,800 496 Climbing Cleveland Center
Mon 10:49:25 AM 40.7978 -79.4942 86° East 97 112 7,300 347 Climbing Cleveland Center
Mon 10:50:26 AM 40.7994 -79.4531 87° East 97 112 7,500 67 Climbing Cleveland Center
Mon 10:52:00 AM 40.7996 -79.3796 90° East  Level FlightAware Approximate
Mon 10:52:25 AM 40.8028 -79.3708 90° East 109 125 7,500  Level Cleveland Center
Mon 10:53:26 AM 40.8025 -79.3297 90° East 104 120 7,500 50 Level Cleveland Center
Mon 10:54:26 AM 40.8061 -79.2856 84° East 104 120 7,600  Climbing Cleveland Center
Mon 10:56:25 AM 40.8092 -79.2006 87° East 104 120 7,500  Descending Cleveland Center
Mon 10:57:26 AM 40.8108 -79.1567 87° East 104 120 7,600 34 Climbing Cleveland Center
Mon 10:59:00 AM 40.8005 -79.0828 88° East  Level FlightAware Approximate
Mon 10:59:24 AM 40.8139 -79.0714 88° East 104 120 7,600  Level Cleveland Center
Mon 11:00:26 AM 40.8153 -79.0275 88° East 109 125 7,600  Level Cleveland Center
Mon 11:02:27 AM 40.8164 -78.9508 89° East 109 125 7,600  Level Cleveland Center
Mon 11:03:25 AM 40.8178 -78.8986 88° East 120 138 7,600  Level Cleveland Center
Mon 11:05:29 AM 40.8203 -78.8011 88° East 135 155 7,600  Level New York Center
Mon 11:06:30 AM 40.8211 -78.7600 88° East 123 142 7,600  Level New York Center
Mon 11:07:30 AM 40.8239 -78.7192 85° East 118 136 7,600  Level New York Center
Mon 11:08:31 AM 40.8247 -78.6753 89° East 118 136 7,600  Level New York Center
Mon 11:10:00 AM 40.8167 -78.6036 90° East  Level FlightAware Approximate
Mon 11:10:29 AM 40.8283 -78.5881 90° East 123 142 7,600  Level New York Center
Mon 11:12:30 AM 40.8297 -78.5031 89° East 123 142 7,600  Level New York Center
Mon 11:14:31 AM 40.8314 -78.4153 89° East 123 142 7,600 -1,029 Level New York Center
Mon 11:16:00 AM 40.8328 -78.3436 89° East  Level FlightAware Approximate
Mon 11:16:29 AM 40.8669 -78.3783 89° East 97 112 3,500  Level New York Center
Mon 11:17:29 AM 40.8681 -78.4250 272° West 75 86 3,500  Level New York Center
Mon 11:18:30 AM 40.8575 -78.3964 116° Southeast 21 24 3,500  Level New York Center
Mon 11:20:00 AM 40.8439 -78.3326 106° East  Level FlightAware Approximate
Mon 11:21:29 AM 40.8617 -78.2678 88° East 144 166 3,500  Level New York Center
Mon 11:23:30 AM 40.8628 -78.1828 89° East 110 127 3,500  Level New York Center
Mon 11:25:31 AM 40.8658 -78.1008 87° East 105 121 3,500  Level New York Center
Mon 11:26:29 AM 40.8661 -78.0625 89° East 105 121 3,500  Level New York Center
Mon 11:27:00 AM 40.8355 -78.0251 88° East  Level FlightAware Approximate
Mon 11:27:29 AM 40.8664 -78.0214 89° East 105 121 3,500  Level New York Center
Mon 11:29:00 AM 40.8654 -77.9520 91° East  Level FlightAware Approximate
Mon 11:32:30 AM 40.8706 -77.8158 91° East 105 121 3,500  Level New York Center
Mon 11:33:31 AM 40.8708 -77.7747 89° East 105 121 3,500 -133 Level New York Center
Mon 11:35:00 AM 40.8690 -77.7069 92° East  Level FlightAware Approximate
Mon 11:35:31 AM 40.8719 -77.6869 92° East 105 121 3,100  Level New York Center
Mon 11:36:00 AM 40.8605 -77.6320 91° East  Level FlightAware Approximate
Mon 11:36:30 AM 40.8722 -77.6458 89° East 105 121 3,100  Level New York Center
Mon 11:37:00 AM 40.8597 -77.5862 91° East  Level FlightAware Approximate
Mon 11:38:00 AM 40.8697 -77.5773 93° East  Level FlightAware Approximate
Mon 11:39:31 AM 40.8731 -77.5222 93° East 105 121 3,200  Level New York Center
Mon 11:41:29 AM 40.8758 -77.4375 87° East 105 121 3,100 75 Descending New York Center
Mon 11:43:30 AM 40.8744 -77.4619 266° West 22 25 3,500 14 Climbing New York Center
Mon 11:45:00 AM 40.8676 -77.5245 262° West  Level FlightAware Approximate
Mon 11:48:29 AM 40.8603 -77.6719 217° Southwest 121 139 3,200  Level New York Center
Mon 11:52:00 AM 40.8491 -77.8176 217° Southwest  Level FlightAware Approximate
Mon 11:53:00 AM 40.8333 -77.8333 217° Southwest  Level FlightAware Approximate
Mon 11:54:00 AM 40.8493 -77.8487 217° Southwest  Level Estimated

Login

Don't have an account? Register now (free) for customized features, flight alerts, and more!